sensor_id;sensor_type;location;lat;lon;timestamp;temperature;humidity
68433;DHT22;55412;51.350;17.056;2022-08-19T00:01:50;24.60;61.60
68433;DHT22;55412;51.350;17.056;2022-08-19T00:04:23;24.60;61.80
68433;DHT22;55412;51.350;17.056;2022-08-19T00:06:52;24.60;61.80
68433;DHT22;55412;51.350;17.056;2022-08-19T00:09:21;24.60;61.80
68433;DHT22;55412;51.350;17.056;2022-08-19T00:11:48;24.50;61.70
68433;DHT22;55412;51.350;17.056;2022-08-19T00:14:16;24.50;61.70
68433;DHT22;55412;51.350;17.056;2022-08-19T00:16:44;24.50;61.60
68433;DHT22;55412;51.350;17.056;2022-08-19T00:19:12;24.50;61.60
68433;DHT22;55412;51.350;17.056;2022-08-19T00:21:38;24.50;61.60
68433;DHT22;55412;51.350;17.056;2022-08-19T00:24:09;24.50;61.60
68433;DHT22;55412;51.350;17.056;2022-08-19T00:26:37;24.50;61.40
68433;DHT22;55412;51.350;17.056;2022-08-19T00:29:05;24.50;61.30
68433;DHT22;55412;51.350;17.056;2022-08-19T00:31:32;24.50;61.50
68433;DHT22;55412;51.350;17.056;2022-08-19T00:33:59;24.50;61.20
68433;DHT22;55412;51.350;17.056;2022-08-19T00:36:25;24.50;61.40
68433;DHT22;55412;51.350;17.056;2022-08-19T00:38:51;24.40;61.60
68433;DHT22;55412;51.350;17.056;2022-08-19T00:41:20;24.40;61.30
68433;DHT22;55412;51.350;17.056;2022-08-19T00:44:25;24.40;61.20
68433;DHT22;55412;51.350;17.056;2022-08-19T00:46:54;24.40;61.20
68433;DHT22;55412;51.350;17.056;2022-08-19T00:49:35;24.40;61.10
68433;DHT22;55412;51.350;17.056;2022-08-19T00:52:15;24.40;61.20
68433;DHT22;55412;51.350;17.056;2022-08-19T00:54:45;24.40;61.40
68433;DHT22;55412;51.350;17.056;2022-08-19T00:57:19;24.30;61.10
68433;DHT22;55412;51.350;17.056;2022-08-19T00:59:52;24.40;61.10
68433;DHT22;55412;51.350;17.056;2022-08-19T01:02:20;24.30;61.10
68433;DHT22;55412;51.350;17.056;2022-08-19T01:04:46;24.30;61.20
68433;DHT22;55412;51.350;17.056;2022-08-19T01:07:12;24.30;61.20
68433;DHT22;55412;51.350;17.056;2022-08-19T01:09:39;24.30;61.20
68433;DHT22;55412;51.350;17.056;2022-08-19T01:12:05;24.30;61.30
68433;DHT22;55412;51.350;17.056;2022-08-19T01:14:31;24.20;61.20
68433;DHT22;55412;51.350;17.056;2022-08-19T01:16:58;24.20;61.30
68433;DHT22;55412;51.350;17.056;2022-08-19T01:19:35;24.20;61.50
68433;DHT22;55412;51.350;17.056;2022-08-19T01:22:19;24.20;61.40
68433;DHT22;55412;51.350;17.056;2022-08-19T01:24:50;24.20;61.50
68433;DHT22;55412;51.350;17.056;2022-08-19T01:27:17;24.20;61.60
68433;DHT22;55412;51.350;17.056;2022-08-19T01:29:44;24.20;61.70
68433;DHT22;55412;51.350;17.056;2022-08-19T01:32:13;24.20;61.80
68433;DHT22;55412;51.350;17.056;2022-08-19T01:34:41;24.10;61.80
68433;DHT22;55412;51.350;17.056;2022-08-19T01:37:13;24.10;61.70
68433;DHT22;55412;51.350;17.056;2022-08-19T01:39:41;24.10;61.70
68433;DHT22;55412;51.350;17.056;2022-08-19T01:42:08;24.10;61.90
68433;DHT22;55412;51.350;17.056;2022-08-19T01:44:39;24.10;61.70
68433;DHT22;55412;51.350;17.056;2022-08-19T01:47:07;24.10;61.90
68433;DHT22;55412;51.350;17.056;2022-08-19T01:49:36;24.10;61.90
68433;DHT22;55412;51.350;17.056;2022-08-19T01:52:03;24.10;61.90
68433;DHT22;55412;51.350;17.056;2022-08-19T01:54:29;24.10;62.10
68433;DHT22;55412;51.350;17.056;2022-08-19T01:57:01;24.10;61.80
68433;DHT22;55412;51.350;17.056;2022-08-19T01:59:30;24.20;61.80
68433;DHT22;55412;51.350;17.056;2022-08-19T02:01:57;24.10;61.80
68433;DHT22;55412;51.350;17.056;2022-08-19T02:04:23;24.10;61.90
68433;DHT22;55412;51.350;17.056;2022-08-19T02:06:51;24.10;62.00
68433;DHT22;55412;51.350;17.056;2022-08-19T02:09:17;24.10;62.00
68433;DHT22;55412;51.350;17.056;2022-08-19T02:11:43;24.10;61.90
68433;DHT22;55412;51.350;17.056;2022-08-19T02:14:09;24.10;61.90
68433;DHT22;55412;51.350;17.056;2022-08-19T02:16:36;24.10;61.90
68433;DHT22;55412;51.350;17.056;2022-08-19T02:19:03;24.10;62.00
68433;DHT22;55412;51.350;17.056;2022-08-19T02:21:30;24.10;62.10
68433;DHT22;55412;51.350;17.056;2022-08-19T02:23:57;24.10;62.20
68433;DHT22;55412;51.350;17.056;2022-08-19T02:26:24;24.10;62.20
68433;DHT22;55412;51.350;17.056;2022-08-19T02:28:52;24.10;62.30
68433;DHT22;55412;51.350;17.056;2022-08-19T02:31:21;24.10;62.20
68433;DHT22;55412;51.350;17.056;2022-08-19T02:33:49;24.10;62.30
68433;DHT22;55412;51.350;17.056;2022-08-19T02:36:16;24.10;62.40
68433;DHT22;55412;51.350;17.056;2022-08-19T02:38:44;24.00;62.50
68433;DHT22;55412;51.350;17.056;2022-08-19T02:41:19;24.00;62.50
68433;DHT22;55412;51.350;17.056;2022-08-19T02:43:51;24.00;62.70
68433;DHT22;55412;51.350;17.056;2022-08-19T02:46:23;23.90;62.70
68433;DHT22;55412;51.350;17.056;2022-08-19T02:48:54;23.90;62.80
68433;DHT22;55412;51.350;17.056;2022-08-19T02:51:25;23.90;62.90
68433;DHT22;55412;51.350;17.056;2022-08-19T02:53:56;23.90;63.00
68433;DHT22;55412;51.350;17.056;2022-08-19T02:56:23;23.90;63.20
68433;DHT22;55412;51.350;17.056;2022-08-19T02:58:54;23.80;63.20
68433;DHT22;55412;51.350;17.056;2022-08-19T03:01:26;23.80;63.40
68433;DHT22;55412;51.350;17.056;2022-08-19T03:03:55;23.80;63.50
68433;DHT22;55412;51.350;17.056;2022-08-19T03:06:23;23.70;63.70
68433;DHT22;55412;51.350;17.056;2022-08-19T03:08:49;23.70;63.80
68433;DHT22;55412;51.350;17.056;2022-08-19T03:11:21;23.70;63.90
68433;DHT22;55412;51.350;17.056;2022-08-19T03:13:52;23.70;64.00
68433;DHT22;55412;51.350;17.056;2022-08-19T03:16:21;23.60;64.10
68433;DHT22;55412;51.350;17.056;2022-08-19T03:18:50;23.60;64.20
68433;DHT22;55412;51.350;17.056;2022-08-19T03:21:22;23.60;64.30
68433;DHT22;55412;51.350;17.056;2022-08-19T03:23:53;23.50;64.60
68433;DHT22;55412;51.350;17.056;2022-08-19T03:26:19;23.40;64.70
68433;DHT22;55412;51.350;17.056;2022-08-19T03:28:46;23.40;65.00
68433;DHT22;55412;51.350;17.056;2022-08-19T03:31:17;23.30;65.20
68433;DHT22;55412;51.350;17.056;2022-08-19T03:33:45;23.30;65.40
68433;DHT22;55412;51.350;17.056;2022-08-19T03:36:17;23.20;65.60
68433;DHT22;55412;51.350;17.056;2022-08-19T03:38:49;23.20;65.70
68433;DHT22;55412;51.350;17.056;2022-08-19T03:41:25;23.20;65.90
68433;DHT22;55412;51.350;17.056;2022-08-19T03:43:54;23.10;66.00
68433;DHT22;55412;51.350;17.056;2022-08-19T03:46:26;23.10;66.10
68433;DHT22;55412;51.350;17.056;2022-08-19T03:48:56;23.10;66.30
68433;DHT22;55412;51.350;17.056;2022-08-19T03:51:31;23.00;66.40
68433;DHT22;55412;51.350;17.056;2022-08-19T03:54:00;23.00;66.50
68433;DHT22;55412;51.350;17.056;2022-08-19T03:56:28;23.00;66.60
68433;DHT22;55412;51.350;17.056;2022-08-19T03:58:57;23.00;66.60
68433;DHT22;55412;51.350;17.056;2022-08-19T04:01:27;23.00;66.70
68433;DHT22;55412;51.350;17.056;2022-08-19T04:03:56;23.00;66.70
68433;DHT22;55412;51.350;17.056;2022-08-19T04:06:28;22.90;66.80
68433;DHT22;55412;51.350;17.056;2022-08-19T04:08:57;22.90;66.80
68433;DHT22;55412;51.350;17.056;2022-08-19T04:11:28;22.90;66.90
68433;DHT22;55412;51.350;17.056;2022-08-19T04:13:56;22.90;67.00
68433;DHT22;55412;51.350;17.056;2022-08-19T04:16:24;22.90;66.90
68433;DHT22;55412;51.350;17.056;2022-08-19T04:18:54;23.00;66.90
68433;DHT22;55412;51.350;17.056;2022-08-19T04:21:24;23.00;67.00
68433;DHT22;55412;51.350;17.056;2022-08-19T04:23:52;23.00;67.00
68433;DHT22;55412;51.350;17.056;2022-08-19T04:26:26;23.10;66.80
68433;DHT22;55412;51.350;17.056;2022-08-19T04:28:54;23.10;66.80
68433;DHT22;55412;51.350;17.056;2022-08-19T04:31:29;23.20;66.80
68433;DHT22;55412;51.350;17.056;2022-08-19T04:33:59;23.20;66.50
68433;DHT22;55412;51.350;17.056;2022-08-19T04:36:29;23.20;66.60
68433;DHT22;55412;51.350;17.056;2022-08-19T04:39:00;23.30;66.60
68433;DHT22;55412;51.350;17.056;2022-08-19T04:41:31;23.30;66.60
68433;DHT22;55412;51.350;17.056;2022-08-19T04:44:16;23.40;66.20
68433;DHT22;55412;51.350;17.056;2022-08-19T04:46:46;23.50;66.10
68433;DHT22;55412;51.350;17.056;2022-08-19T04:49:14;23.60;65.70
68433;DHT22;55412;51.350;17.056;2022-08-19T04:51:44;23.60;65.80
68433;DHT22;55412;51.350;17.056;2022-08-19T04:54:11;23.70;65.70
68433;DHT22;55412;51.350;17.056;2022-08-19T04:56:39;23.70;65.40
68433;DHT22;55412;51.350;17.056;2022-08-19T04:59:06;23.80;65.30
68433;DHT22;55412;51.350;17.056;2022-08-19T05:01:34;23.80;65.50
68433;DHT22;55412;51.350;17.056;2022-08-19T05:04:04;23.90;65.00
68433;DHT22;55412;51.350;17.056;2022-08-19T05:06:32;24.00;65.10
68433;DHT22;55412;51.350;17.056;2022-08-19T05:09:04;24.00;64.70
68433;DHT22;55412;51.350;17.056;2022-08-19T05:11:36;24.10;64.30
68433;DHT22;55412;51.350;17.056;2022-08-19T05:14:06;24.00;64.80
68433;DHT22;55412;51.350;17.056;2022-08-19T05:16:33;24.10;64.90
68433;DHT22;55412;51.350;17.056;2022-08-19T05:19:00;24.10;64.80
68433;DHT22;55412;51.350;17.056;2022-08-19T05:21:45;24.10;65.10
68433;DHT22;55412;51.350;17.056;2022-08-19T05:24:30;24.20;65.10
68433;DHT22;55412;51.350;17.056;2022-08-19T05:27:00;24.20;65.00
68433;DHT22;55412;51.350;17.056;2022-08-19T05:29:29;24.20;64.80
68433;DHT22;55412;51.350;17.056;2022-08-19T05:31:57;24.30;64.60
68433;DHT22;55412;51.350;17.056;2022-08-19T05:34:25;24.30;64.60
68433;DHT22;55412;51.350;17.056;2022-08-19T05:36:58;24.30;64.50
68433;DHT22;55412;51.350;17.056;2022-08-19T05:39:27;24.30;64.50
68433;DHT22;55412;51.350;17.056;2022-08-19T05:41:58;24.30;64.90
68433;DHT22;55412;51.350;17.056;2022-08-19T05:44:28;24.30;64.80
68433;DHT22;55412;51.350;17.056;2022-08-19T05:47:00;24.30;64.80
68433;DHT22;55412;51.350;17.056;2022-08-19T05:49:28;24.30;64.70
68433;DHT22;55412;51.350;17.056;2022-08-19T05:51:55;24.30;64.80
68433;DHT22;55412;51.350;17.056;2022-08-19T05:54:22;24.40;65.30
68433;DHT22;55412;51.350;17.056;2022-08-19T05:56:50;24.50;64.80
68433;DHT22;55412;51.350;17.056;2022-08-19T05:59:18;24.50;65.00
68433;DHT22;55412;51.350;17.056;2022-08-19T06:01:48;24.60;64.90
68433;DHT22;55412;51.350;17.056;2022-08-19T06:04:16;24.70;64.60
68433;DHT22;55412;51.350;17.056;2022-08-19T06:06:48;24.80;64.20
68433;DHT22;55412;51.350;17.056;2022-08-19T06:09:18;24.90;63.90
68433;DHT22;55412;51.350;17.056;2022-08-19T06:11:47;25.00;63.70
68433;DHT22;55412;51.350;17.056;2022-08-19T06:14:18;25.10;63.80
68433;DHT22;55412;51.350;17.056;2022-08-19T06:16:46;25.20;63.00
68433;DHT22;55412;51.350;17.056;2022-08-19T06:19:16;25.30;62.60
68433;DHT22;55412;51.350;17.056;2022-08-19T06:21:44;25.40;62.40
68433;DHT22;55412;51.350;17.056;2022-08-19T06:24:13;25.50;62.80
68433;DHT22;55412;51.350;17.056;2022-08-19T06:26:44;25.60;61.70
68433;DHT22;55412;51.350;17.056;2022-08-19T06:29:13;25.70;61.70
68433;DHT22;55412;51.350;17.056;2022-08-19T06:31:44;25.70;61.50
68433;DHT22;55412;51.350;17.056;2022-08-19T06:34:12;25.70;60.80
68433;DHT22;55412;51.350;17.056;2022-08-19T06:36:41;25.70;61.10
68433;DHT22;55412;51.350;17.056;2022-08-19T06:39:24;25.80;61.00
68433;DHT22;55412;51.350;17.056;2022-08-19T06:41:54;25.80;60.70
68433;DHT22;55412;51.350;17.056;2022-08-19T06:44:24;25.90;61.10
68433;DHT22;55412;51.350;17.056;2022-08-19T06:46:53;25.90;61.20
68433;DHT22;55412;51.350;17.056;2022-08-19T06:49:20;25.90;61.70
68433;DHT22;55412;51.350;17.056;2022-08-19T06:51:48;26.00;61.60
68433;DHT22;55412;51.350;17.056;2022-08-19T06:54:16;26.20;60.10
68433;DHT22;55412;51.350;17.056;2022-08-19T06:56:43;26.30;60.60
68433;DHT22;55412;51.350;17.056;2022-08-19T06:59:13;26.50;60.20
68433;DHT22;55412;51.350;17.056;2022-08-19T07:01:47;26.50;59.80
68433;DHT22;55412;51.350;17.056;2022-08-19T07:04:19;26.60;59.50
68433;DHT22;55412;51.350;17.056;2022-08-19T07:06:47;26.70;59.80
68433;DHT22;55412;51.350;17.056;2022-08-19T07:09:16;26.80;58.80
68433;DHT22;55412;51.350;17.056;2022-08-19T07:11:48;26.90;57.90
68433;DHT22;55412;51.350;17.056;2022-08-19T07:14:17;26.90;58.10
68433;DHT22;55412;51.350;17.056;2022-08-19T07:16:45;26.90;58.40
68433;DHT22;55412;51.350;17.056;2022-08-19T07:19:16;27.00;57.50
68433;DHT22;55412;51.350;17.056;2022-08-19T07:21:44;27.20;58.30
68433;DHT22;55412;51.350;17.056;2022-08-19T07:24:11;27.40;56.60
68433;DHT22;55412;51.350;17.056;2022-08-19T07:26:40;27.60;56.90
68433;DHT22;55412;51.350;17.056;2022-08-19T07:29:09;27.90;57.00
68433;DHT22;55412;51.350;17.056;2022-08-19T07:31:36;28.00;55.60
68433;DHT22;55412;51.350;17.056;2022-08-19T07:34:07;28.20;55.90
68433;DHT22;55412;51.350;17.056;2022-08-19T07:36:37;28.30;54.80
68433;DHT22;55412;51.350;17.056;2022-08-19T07:39:22;28.40;54.90
68433;DHT22;55412;51.350;17.056;2022-08-19T07:41:56;28.70;54.20
68433;DHT22;55412;51.350;17.056;2022-08-19T07:44:23;29.00;53.70
68433;DHT22;55412;51.350;17.056;2022-08-19T07:46:54;29.20;53.30
68433;DHT22;55412;51.350;17.056;2022-08-19T07:49:22;29.50;52.90
68433;DHT22;55412;51.350;17.056;2022-08-19T07:51:57;29.80;52.70
68433;DHT22;55412;51.350;17.056;2022-08-19T07:54:28;29.90;52.60
68433;DHT22;55412;51.350;17.056;2022-08-19T07:56:55;30.10;51.40
68433;DHT22;55412;51.350;17.056;2022-08-19T07:59:23;30.30;50.70
68433;DHT22;55412;51.350;17.056;2022-08-19T08:01:50;30.30;50.20
68433;DHT22;55412;51.350;17.056;2022-08-19T08:04:18;30.40;50.80
68433;DHT22;55412;51.350;17.056;2022-08-19T08:07:05;30.60;50.20
68433;DHT22;55412;51.350;17.056;2022-08-19T08:09:50;30.90;48.70
68433;DHT22;55412;51.350;17.056;2022-08-19T08:12:23;31.00;48.30
68433;DHT22;55412;51.350;17.056;2022-08-19T08:14:56;31.20;49.40
68433;DHT22;55412;51.350;17.056;2022-08-19T08:17:26;31.40;47.80
68433;DHT22;55412;51.350;17.056;2022-08-19T08:19:53;31.60;47.00
68433;DHT22;55412;51.350;17.056;2022-08-19T08:22:21;31.70;46.30
68433;DHT22;55412;51.350;17.056;2022-08-19T08:25:09;31.70;46.10
68433;DHT22;55412;51.350;17.056;2022-08-19T08:27:42;31.50;46.20
68433;DHT22;55412;51.350;17.056;2022-08-19T08:30:22;31.40;45.90
68433;DHT22;55412;51.350;17.056;2022-08-19T08:32:49;31.20;45.80
68433;DHT22;55412;51.350;17.056;2022-08-19T08:35:18;30.90;46.80
68433;DHT22;55412;51.350;17.056;2022-08-19T08:37:47;30.80;47.60
68433;DHT22;55412;51.350;17.056;2022-08-19T08:40:42;30.70;47.30
68433;DHT22;55412;51.350;17.056;2022-08-19T08:43:34;30.70;47.70
68433;DHT22;55412;51.350;17.056;2022-08-19T08:52:26;30.60;46.80
68433;DHT22;55412;51.350;17.056;2022-08-19T08:54:58;30.50;46.90
68433;DHT22;55412;51.350;17.056;2022-08-19T08:57:48;30.40;46.70
68433;DHT22;55412;51.350;17.056;2022-08-19T09:00:28;30.40;48.00
68433;DHT22;55412;51.350;17.056;2022-08-19T09:03:13;30.30;47.60
68433;DHT22;55412;51.350;17.056;2022-08-19T09:05:47;30.20;47.50
68433;DHT22;55412;51.350;17.056;2022-08-19T09:12:03;30.00;48.00
68433;DHT22;55412;51.350;17.056;2022-08-19T09:17:13;29.90;48.60
68433;DHT22;55412;51.350;17.056;2022-08-19T09:20:03;30.00;49.60
68433;DHT22;55412;51.350;17.056;2022-08-19T09:22:35;30.20;48.40
68433;DHT22;55412;51.350;17.056;2022-08-19T09:25:03;30.40;48.90
68433;DHT22;55412;51.350;17.056;2022-08-19T09:27:31;30.60;48.00
68433;DHT22;55412;51.350;17.056;2022-08-19T09:29:57;30.70;46.40
68433;DHT22;55412;51.350;17.056;2022-08-19T09:32:24;30.80;47.50
68433;DHT22;55412;51.350;17.056;2022-08-19T09:34:52;31.00;47.20
68433;DHT22;55412;51.350;17.056;2022-08-19T09:37:24;31.10;46.60
68433;DHT22;55412;51.350;17.056;2022-08-19T09:39:51;31.30;46.40
68433;DHT22;55412;51.350;17.056;2022-08-19T09:42:18;31.30;45.60
68433;DHT22;55412;51.350;17.056;2022-08-19T09:44:44;31.40;45.60
68433;DHT22;55412;51.350;17.056;2022-08-19T09:47:12;31.40;46.40
68433;DHT22;55412;51.350;17.056;2022-08-19T09:49:40;31.40;45.50
68433;DHT22;55412;51.350;17.056;2022-08-19T09:52:08;31.50;45.10
68433;DHT22;55412;51.350;17.056;2022-08-19T09:54:37;31.50;45.70
68433;DHT22;55412;51.350;17.056;2022-08-19T09:57:04;31.60;45.90
68433;DHT22;55412;51.350;17.056;2022-08-19T09:59:30;31.60;45.50
68433;DHT22;55412;51.350;17.056;2022-08-19T10:01:56;31.60;45.90
68433;DHT22;55412;51.350;17.056;2022-08-19T10:04:22;31.60;46.20
68433;DHT22;55412;51.350;17.056;2022-08-19T10:07:08;31.60;46.30
68433;DHT22;55412;51.350;17.056;2022-08-19T10:09:35;31.60;45.00
68433;DHT22;55412;51.350;17.056;2022-08-19T10:12:02;31.60;45.80
68433;DHT22;55412;51.350;17.056;2022-08-19T10:14:30;31.60;46.20
68433;DHT22;55412;51.350;17.056;2022-08-19T10:16:56;31.70;46.80
68433;DHT22;55412;51.350;17.056;2022-08-19T10:19:23;31.80;47.40
68433;DHT22;55412;51.350;17.056;2022-08-19T10:21:49;31.80;45.80
68433;DHT22;55412;51.350;17.056;2022-08-19T10:24:15;31.80;44.10
68433;DHT22;55412;51.350;17.056;2022-08-19T10:26:41;31.70;43.90
68433;DHT22;55412;51.350;17.056;2022-08-19T10:29:10;31.60;45.20
68433;DHT22;55412;51.350;17.056;2022-08-19T10:31:37;31.60;45.50
68433;DHT22;55412;51.350;17.056;2022-08-19T10:34:03;31.70;46.60
68433;DHT22;55412;51.350;17.056;2022-08-19T10:36:36;31.60;46.40
68433;DHT22;55412;51.350;17.056;2022-08-19T10:39:08;31.60;46.70
68433;DHT22;55412;51.350;17.056;2022-08-19T10:41:37;31.60;46.40
68433;DHT22;55412;51.350;17.056;2022-08-19T10:44:06;31.60;45.40
68433;DHT22;55412;51.350;17.056;2022-08-19T10:46:40;31.60;45.80
68433;DHT22;55412;51.350;17.056;2022-08-19T10:49:09;31.60;46.00
68433;DHT22;55412;51.350;17.056;2022-08-19T10:51:37;31.60;47.10
68433;DHT22;55412;51.350;17.056;2022-08-19T10:54:23;31.70;46.20
68433;DHT22;55412;51.350;17.056;2022-08-19T10:57:09;31.60;45.70
68433;DHT22;55412;51.350;17.056;2022-08-19T10:59:35;31.60;45.90
68433;DHT22;55412;51.350;17.056;2022-08-19T11:02:05;31.60;47.70
68433;DHT22;55412;51.350;17.056;2022-08-19T11:04:36;31.50;46.50
68433;DHT22;55412;51.350;17.056;2022-08-19T11:07:03;31.60;47.10
68433;DHT22;55412;51.350;17.056;2022-08-19T11:09:30;31.60;46.90
68433;DHT22;55412;51.350;17.056;2022-08-19T11:11:56;31.60;46.60
68433;DHT22;55412;51.350;17.056;2022-08-19T11:14:23;31.60;44.90
68433;DHT22;55412;51.350;17.056;2022-08-19T11:16:52;31.70;45.70
68433;DHT22;55412;51.350;17.056;2022-08-19T11:19:22;31.70;45.10
68433;DHT22;55412;51.350;17.056;2022-08-19T11:21:51;31.80;45.30
68433;DHT22;55412;51.350;17.056;2022-08-19T11:24:24;31.90;44.60
68433;DHT22;55412;51.350;17.056;2022-08-19T11:26:53;31.90;45.50
68433;DHT22;55412;51.350;17.056;2022-08-19T11:29:24;32.00;45.20
68433;DHT22;55412;51.350;17.056;2022-08-19T11:31:51;31.90;44.70
68433;DHT22;55412;51.350;17.056;2022-08-19T11:34:23;32.00;45.00
68433;DHT22;55412;51.350;17.056;2022-08-19T11:36:52;32.00;45.50
68433;DHT22;55412;51.350;17.056;2022-08-19T11:39:22;32.10;43.70
68433;DHT22;55412;51.350;17.056;2022-08-19T11:41:48;32.10;44.40
68433;DHT22;55412;51.350;17.056;2022-08-19T11:44:14;32.10;44.70
68433;DHT22;55412;51.350;17.056;2022-08-19T11:46:42;32.10;44.50
68433;DHT22;55412;51.350;17.056;2022-08-19T11:49:16;32.10;44.20
68433;DHT22;55412;51.350;17.056;2022-08-19T11:51:44;32.10;44.10
68433;DHT22;55412;51.350;17.056;2022-08-19T11:54:13;32.10;44.90
68433;DHT22;55412;51.350;17.056;2022-08-19T11:56:42;32.10;45.80
68433;DHT22;55412;51.350;17.056;2022-08-19T11:59:09;32.20;45.00
68433;DHT22;55412;51.350;17.056;2022-08-19T12:01:36;32.20;45.90
68433;DHT22;55412;51.350;17.056;2022-08-19T12:04:02;32.20;45.40
68433;DHT22;55412;51.350;17.056;2022-08-19T12:06:32;32.30;45.00
68433;DHT22;55412;51.350;17.056;2022-08-19T12:09:03;32.20;44.20
68433;DHT22;55412;51.350;17.056;2022-08-19T12:11:31;32.20;44.50
68433;DHT22;55412;51.350;17.056;2022-08-19T12:13:57;32.20;44.30
68433;DHT22;55412;51.350;17.056;2022-08-19T12:16:27;32.10;43.00
68433;DHT22;55412;51.350;17.056;2022-08-19T12:18:57;32.00;43.70
68433;DHT22;55412;51.350;17.056;2022-08-19T12:21:34;31.90;43.50
68433;DHT22;55412;51.350;17.056;2022-08-19T12:24:02;31.90;44.60
68433;DHT22;55412;51.350;17.056;2022-08-19T12:26:30;31.90;45.00
68433;DHT22;55412;51.350;17.056;2022-08-19T12:28:57;31.90;45.30
68433;DHT22;55412;51.350;17.056;2022-08-19T12:31:26;32.00;44.50
68433;DHT22;55412;51.350;17.056;2022-08-19T12:33:53;32.00;46.00
68433;DHT22;55412;51.350;17.056;2022-08-19T12:36:20;32.10;44.50
68433;DHT22;55412;51.350;17.056;2022-08-19T12:38:47;32.10;44.50
68433;DHT22;55412;51.350;17.056;2022-08-19T12:41:15;32.20;43.90
68433;DHT22;55412;51.350;17.056;2022-08-19T12:43:44;32.30;43.90
68433;DHT22;55412;51.350;17.056;2022-08-19T12:46:11;32.30;43.80
68433;DHT22;55412;51.350;17.056;2022-08-19T12:48:38;32.40;44.40
68433;DHT22;55412;51.350;17.056;2022-08-19T12:51:14;32.40;43.90
68433;DHT22;55412;51.350;17.056;2022-08-19T12:53:42;32.40;43.40
68433;DHT22;55412;51.350;17.056;2022-08-19T12:56:10;32.40;45.20
68433;DHT22;55412;51.350;17.056;2022-08-19T12:58:37;32.40;43.50
68433;DHT22;55412;51.350;17.056;2022-08-19T13:01:11;32.40;44.60
68433;DHT22;55412;51.350;17.056;2022-08-19T13:03:39;32.40;43.50
68433;DHT22;55412;51.350;17.056;2022-08-19T13:06:06;32.30;43.30
68433;DHT22;55412;51.350;17.056;2022-08-19T13:08:33;32.30;44.70
68433;DHT22;55412;51.350;17.056;2022-08-19T13:11:14;32.30;44.20
68433;DHT22;55412;51.350;17.056;2022-08-19T13:13:44;32.30;43.90
68433;DHT22;55412;51.350;17.056;2022-08-19T13:16:12;32.30;45.00
68433;DHT22;55412;51.350;17.056;2022-08-19T13:18:40;32.40;44.50
68433;DHT22;55412;51.350;17.056;2022-08-19T13:21:08;32.50;44.50
68433;DHT22;55412;51.350;17.056;2022-08-19T13:23:35;32.50;44.10
68433;DHT22;55412;51.350;17.056;2022-08-19T13:26:05;32.60;44.10
68433;DHT22;55412;51.350;17.056;2022-08-19T13:28:32;32.50;43.60
68433;DHT22;55412;51.350;17.056;2022-08-19T13:31:20;32.50;43.60
68433;DHT22;55412;51.350;17.056;2022-08-19T13:34:06;32.50;41.40
68433;DHT22;55412;51.350;17.056;2022-08-19T13:36:33;32.40;43.30
68433;DHT22;55412;51.350;17.056;2022-08-19T13:39:00;32.30;43.40
68433;DHT22;55412;51.350;17.056;2022-08-19T13:41:26;32.30;42.90
68433;DHT22;55412;51.350;17.056;2022-08-19T13:43:53;32.30;43.10
68433;DHT22;55412;51.350;17.056;2022-08-19T13:46:20;32.30;43.80
68433;DHT22;55412;51.350;17.056;2022-08-19T13:48:46;32.40;43.60
68433;DHT22;55412;51.350;17.056;2022-08-19T13:51:17;32.30;43.70
68433;DHT22;55412;51.350;17.056;2022-08-19T13:53:44;32.30;43.50
68433;DHT22;55412;51.350;17.056;2022-08-19T13:56:14;32.30;43.50
68433;DHT22;55412;51.350;17.056;2022-08-19T13:58:44;32.30;43.70
68433;DHT22;55412;51.350;17.056;2022-08-19T14:01:10;32.30;44.20
68433;DHT22;55412;51.350;17.056;2022-08-19T14:03:37;32.20;43.70
68433;DHT22;55412;51.350;17.056;2022-08-19T14:06:04;32.20;44.20
68433;DHT22;55412;51.350;17.056;2022-08-19T14:08:30;32.20;43.20
68433;DHT22;55412;51.350;17.056;2022-08-19T14:10:58;32.10;43.30
68433;DHT22;55412;51.350;17.056;2022-08-19T14:13:24;32.00;43.90
68433;DHT22;55412;51.350;17.056;2022-08-19T14:15:51;32.00;43.80
68433;DHT22;55412;51.350;17.056;2022-08-19T14:18:18;32.00;43.70
68433;DHT22;55412;51.350;17.056;2022-08-19T14:20:44;31.90;44.40
68433;DHT22;55412;51.350;17.056;2022-08-19T14:23:11;31.80;43.90
68433;DHT22;55412;51.350;17.056;2022-08-19T14:25:38;31.80;45.10
68433;DHT22;55412;51.350;17.056;2022-08-19T14:28:04;31.80;44.50
68433;DHT22;55412;51.350;17.056;2022-08-19T14:30:33;31.70;45.30
68433;DHT22;55412;51.350;17.056;2022-08-19T14:33:04;31.70;45.30
68433;DHT22;55412;51.350;17.056;2022-08-19T14:35:33;31.70;45.30
68433;DHT22;55412;51.350;17.056;2022-08-19T14:38:01;31.70;43.10
68433;DHT22;55412;51.350;17.056;2022-08-19T14:40:29;31.60;44.70
68433;DHT22;55412;51.350;17.056;2022-08-19T14:42:58;31.60;45.30
68433;DHT22;55412;51.350;17.056;2022-08-19T14:45:29;31.50;44.70
68433;DHT22;55412;51.350;17.056;2022-08-19T14:47:57;31.50;45.70
68433;DHT22;55412;51.350;17.056;2022-08-19T14:50:25;31.40;45.30
68433;DHT22;55412;51.350;17.056;2022-08-19T14:53:02;31.40;45.30
68433;DHT22;55412;51.350;17.056;2022-08-19T14:55:31;31.30;45.70
68433;DHT22;55412;51.350;17.056;2022-08-19T14:57:58;31.30;45.70
68433;DHT22;55412;51.350;17.056;2022-08-19T15:00:24;31.20;45.70
68433;DHT22;55412;51.350;17.056;2022-08-19T15:02:51;31.20;45.90
68433;DHT22;55412;51.350;17.056;2022-08-19T15:05:20;31.10;46.60
68433;DHT22;55412;51.350;17.056;2022-08-19T15:07:47;31.10;46.80
68433;DHT22;55412;51.350;17.056;2022-08-19T15:10:14;31.00;47.10
68433;DHT22;55412;51.350;17.056;2022-08-19T15:12:41;31.00;47.70
68433;DHT22;55412;51.350;17.056;2022-08-19T15:15:13;30.90;48.10
68433;DHT22;55412;51.350;17.056;2022-08-19T15:17:44;30.80;48.60
68433;DHT22;55412;51.350;17.056;2022-08-19T15:20:15;30.80;48.80
68433;DHT22;55412;51.350;17.056;2022-08-19T15:22:43;30.70;49.10
68433;DHT22;55412;51.350;17.056;2022-08-19T15:25:12;30.60;49.10
68433;DHT22;55412;51.350;17.056;2022-08-19T15:27:39;30.60;49.30
68433;DHT22;55412;51.350;17.056;2022-08-19T15:30:07;30.50;49.50
68433;DHT22;55412;51.350;17.056;2022-08-19T15:32:39;30.40;49.60
68433;DHT22;55412;51.350;17.056;2022-08-19T15:35:06;30.40;49.90
68433;DHT22;55412;51.350;17.056;2022-08-19T15:37:32;30.40;50.20
68433;DHT22;55412;51.350;17.056;2022-08-19T15:39:59;30.30;50.40
68433;DHT22;55412;51.350;17.056;2022-08-19T15:42:24;30.20;50.70
68433;DHT22;55412;51.350;17.056;2022-08-19T15:44:52;30.20;50.80